sensor_id;sensor_type;location;lat;lon;timestamp;P1;durP1;ratioP1;P2;durP2;ratioP2
12770;SDS011;6449;47.666;9.160;2023-02-26T00:04:42;5.17;;;3.03;;
12770;SDS011;6449;47.666;9.160;2023-02-26T00:10:03;5.97;;;3.30;;
12770;SDS011;6449;47.666;9.160;2023-02-26T00:15:17;3.47;;;2.80;;
12770;SDS011;6449;47.666;9.160;2023-02-26T00:20:13;4.87;;;3.23;;
12770;SDS011;6449;47.666;9.160;2023-02-26T00:25:21;4.60;;;3.13;;
12770;SDS011;6449;47.666;9.160;2023-02-26T00:30:20;6.97;;;3.27;;
12770;SDS011;6449;47.666;9.160;2023-02-26T00:41:07;4.10;;;2.67;;
12770;SDS011;6449;47.666;9.160;2023-02-26T00:46:28;3.87;;;2.93;;
12770;SDS011;6449;47.666;9.160;2023-02-26T00:51:57;3.73;;;2.53;;
12770;SDS011;6449;47.666;9.160;2023-02-26T00:57:07;4.63;;;2.70;;
12770;SDS011;6449;47.666;9.160;2023-02-26T01:02:16;6.70;;;2.90;;
12770;SDS011;6449;47.666;9.160;2023-02-26T01:07:12;3.50;;;2.67;;
12770;SDS011;6449;47.666;9.160;2023-02-26T01:12:20;4.13;;;2.60;;
12770;SDS011;6449;47.666;9.160;2023-02-26T01:17:27;4.13;;;3.03;;
12770;SDS011;6449;47.666;9.160;2023-02-26T01:22:41;4.50;;;2.93;;
12770;SDS011;6449;47.666;9.160;2023-02-26T01:27:45;4.07;;;3.00;;
12770;SDS011;6449;47.666;9.160;2023-02-26T01:32:50;4.30;;;3.13;;
12770;SDS011;6449;47.666;9.160;2023-02-26T01:38:05;3.93;;;2.77;;
12770;SDS011;6449;47.666;9.160;2023-02-26T01:43:26;3.67;;;2.77;;
12770;SDS011;6449;47.666;9.160;2023-02-26T01:48:42;4.37;;;2.50;;
12770;SDS011;6449;47.666;9.160;2023-02-26T01:53:58;6.03;;;2.70;;
12770;SDS011;6449;47.666;9.160;2023-02-26T01:58:53;4.47;;;2.80;;
12770;SDS011;6449;47.666;9.160;2023-02-26T02:03:59;5.20;;;3.40;;
12770;SDS011;6449;47.666;9.160;2023-02-26T02:09:10;4.70;;;2.73;;
12770;SDS011;6449;47.666;9.160;2023-02-26T02:14:17;4.23;;;2.80;;
12770;SDS011;6449;47.666;9.160;2023-02-26T02:31:37;3.83;;;3.00;;
12770;SDS011;6449;47.666;9.160;2023-02-26T02:36:49;4.30;;;2.87;;
12770;SDS011;6449;47.666;9.160;2023-02-26T02:42:19;4.17;;;2.90;;
12770;SDS011;6449;47.666;9.160;2023-02-26T02:47:33;3.10;;;2.17;;
12770;SDS011;6449;47.666;9.160;2023-02-26T02:52:44;3.23;;;2.03;;
12770;SDS011;6449;47.666;9.160;2023-02-26T02:57:48;2.87;;;2.50;;
12770;SDS011;6449;47.666;9.160;2023-02-26T03:03:04;3.27;;;2.60;;
12770;SDS011;6449;47.666;9.160;2023-02-26T03:08:09;2.40;;;2.20;;
12770;SDS011;6449;47.666;9.160;2023-02-26T03:13:15;3.10;;;2.43;;
12770;SDS011;6449;47.666;9.160;2023-02-26T03:18:46;3.07;;;2.40;;
12770;SDS011;6449;47.666;9.160;2023-02-26T03:24:08;2.40;;;2.20;;
12770;SDS011;6449;47.666;9.160;2023-02-26T03:29:19;2.63;;;2.30;;
12770;SDS011;6449;47.666;9.160;2023-02-26T03:34:42;2.83;;;2.07;;
12770;SDS011;6449;47.666;9.160;2023-02-26T03:39:44;3.30;;;2.10;;
12770;SDS011;6449;47.666;9.160;2023-02-26T03:44:56;3.57;;;2.30;;
12770;SDS011;6449;47.666;9.160;2023-02-26T03:50:00;2.70;;;2.17;;
12770;SDS011;6449;47.666;9.160;2023-02-26T03:55:13;4.10;;;1.93;;
12770;SDS011;6449;47.666;9.160;2023-02-26T04:00:16;3.73;;;1.90;;
12770;SDS011;6449;47.666;9.160;2023-02-26T04:05:19;2.60;;;2.40;;
12770;SDS011;6449;47.666;9.160;2023-02-26T04:10:27;3.20;;;2.30;;
12770;SDS011;6449;47.666;9.160;2023-02-26T04:15:44;3.10;;;2.10;;
12770;SDS011;6449;47.666;9.160;2023-02-26T04:20:49;4.43;;;2.60;;
12770;SDS011;6449;47.666;9.160;2023-02-26T04:25:48;3.50;;;2.03;;
12770;SDS011;6449;47.666;9.160;2023-02-26T04:30:57;4.70;;;2.20;;
12770;SDS011;6449;47.666;9.160;2023-02-26T04:36:10;3.33;;;2.30;;
12770;SDS011;6449;47.666;9.160;2023-02-26T04:41:04;3.67;;;2.23;;
12770;SDS011;6449;47.666;9.160;2023-02-26T04:46:02;2.50;;;2.07;;
12770;SDS011;6449;47.666;9.160;2023-02-26T04:51:12;2.40;;;1.73;;
12770;SDS011;6449;47.666;9.160;2023-02-26T04:56:06;5.07;;;2.47;;
12770;SDS011;6449;47.666;9.160;2023-02-26T05:01:00;6.63;;;2.47;;
12770;SDS011;6449;47.666;9.160;2023-02-26T05:05:54;3.50;;;2.53;;
12770;SDS011;6449;47.666;9.160;2023-02-26T05:10:59;3.00;;;2.37;;
12770;SDS011;6449;47.666;9.160;2023-02-26T05:16:01;3.33;;;2.87;;
12770;SDS011;6449;47.666;9.160;2023-02-26T05:21:00;7.77;;;2.67;;
12770;SDS011;6449;47.666;9.160;2023-02-26T05:26:09;2.63;;;2.17;;
12770;SDS011;6449;47.666;9.160;2023-02-26T05:31:08;3.83;;;2.20;;
12770;SDS011;6449;47.666;9.160;2023-02-26T05:36:10;3.50;;;2.27;;
12770;SDS011;6449;47.666;9.160;2023-02-26T05:46:38;2.90;;;2.40;;
12770;SDS011;6449;47.666;9.160;2023-02-26T05:51:48;3.00;;;2.33;;
12770;SDS011;6449;47.666;9.160;2023-02-26T05:57:02;3.17;;;2.00;;
12770;SDS011;6449;47.666;9.160;2023-02-26T06:01:55;3.63;;;2.40;;
12770;SDS011;6449;47.666;9.160;2023-02-26T06:07:05;4.13;;;2.30;;
12770;SDS011;6449;47.666;9.160;2023-02-26T06:11:58;3.23;;;2.20;;
12770;SDS011;6449;47.666;9.160;2023-02-26T06:17:06;2.73;;;2.00;;
12770;SDS011;6449;47.666;9.160;2023-02-26T06:22:08;2.60;;;2.00;;
12770;SDS011;6449;47.666;9.160;2023-02-26T06:27:02;3.67;;;1.97;;
12770;SDS011;6449;47.666;9.160;2023-02-26T06:31:55;3.80;;;2.33;;
12770;SDS011;6449;47.666;9.160;2023-02-26T06:36:50;2.77;;;1.90;;
12770;SDS011;6449;47.666;9.160;2023-02-26T06:41:44;3.77;;;1.83;;
12770;SDS011;6449;47.666;9.160;2023-02-26T06:46:37;3.57;;;1.87;;
12770;SDS011;6449;47.666;9.160;2023-02-26T06:51:31;4.47;;;2.30;;
12770;SDS011;6449;47.666;9.160;2023-02-26T06:56:27;5.30;;;1.70;;
12770;SDS011;6449;47.666;9.160;2023-02-26T07:01:20;3.10;;;1.67;;
12770;SDS011;6449;47.666;9.160;2023-02-26T07:06:14;3.77;;;1.90;;
12770;SDS011;6449;47.666;9.160;2023-02-26T07:11:30;3.20;;;1.87;;
12770;SDS011;6449;47.666;9.160;2023-02-26T07:16:23;2.67;;;1.70;;
12770;SDS011;6449;47.666;9.160;2023-02-26T07:21:17;4.23;;;2.23;;
12770;SDS011;6449;47.666;9.160;2023-02-26T07:26:11;3.50;;;2.07;;
12770;SDS011;6449;47.666;9.160;2023-02-26T07:31:06;3.90;;;2.00;;
12770;SDS011;6449;47.666;9.160;2023-02-26T07:36:00;4.33;;;2.50;;
12770;SDS011;6449;47.666;9.160;2023-02-26T07:40:54;3.67;;;3.00;;
12770;SDS011;6449;47.666;9.160;2023-02-26T07:45:51;3.30;;;1.87;;
12770;SDS011;6449;47.666;9.160;2023-02-26T07:50:46;2.70;;;2.03;;
12770;SDS011;6449;47.666;9.160;2023-02-26T07:55:43;2.63;;;1.90;;
12770;SDS011;6449;47.666;9.160;2023-02-26T08:00:37;6.77;;;2.23;;
12770;SDS011;6449;47.666;9.160;2023-02-26T08:05:40;2.33;;;1.80;;
12770;SDS011;6449;47.666;9.160;2023-02-26T08:10:35;2.97;;;1.77;;
12770;SDS011;6449;47.666;9.160;2023-02-26T08:16:12;4.43;;;2.00;;
12770;SDS011;6449;47.666;9.160;2023-02-26T08:21:05;5.87;;;1.70;;
12770;SDS011;6449;47.666;9.160;2023-02-26T08:26:01;2.73;;;1.63;;
12770;SDS011;6449;47.666;9.160;2023-02-26T08:30:56;3.80;;;2.00;;
12770;SDS011;6449;47.666;9.160;2023-02-26T08:35:51;4.50;;;2.03;;
12770;SDS011;6449;47.666;9.160;2023-02-26T08:40:47;4.13;;;1.67;;
12770;SDS011;6449;47.666;9.160;2023-02-26T08:45:45;1.47;;;1.37;;
12770;SDS011;6449;47.666;9.160;2023-02-26T08:50:39;3.20;;;1.60;;
12770;SDS011;6449;47.666;9.160;2023-02-26T08:55:36;3.53;;;1.77;;
12770;SDS011;6449;47.666;9.160;2023-02-26T09:00:29;2.10;;;1.77;;
12770;SDS011;6449;47.666;9.160;2023-02-26T09:05:25;2.50;;;2.00;;
12770;SDS011;6449;47.666;9.160;2023-02-26T09:10:19;3.73;;;1.83;;
12770;SDS011;6449;47.666;9.160;2023-02-26T09:15:16;2.40;;;1.80;;
12770;SDS011;6449;47.666;9.160;2023-02-26T09:20:20;3.80;;;1.80;;
12770;SDS011;6449;47.666;9.160;2023-02-26T09:25:16;3.10;;;1.90;;
12770;SDS011;6449;47.666;9.160;2023-02-26T09:30:10;4.77;;;2.17;;
12770;SDS011;6449;47.666;9.160;2023-02-26T09:35:07;2.37;;;1.17;;
12770;SDS011;6449;47.666;9.160;2023-02-26T09:40:02;1.80;;;1.50;;
12770;SDS011;6449;47.666;9.160;2023-02-26T09:44:58;1.80;;;1.70;;
12770;SDS011;6449;47.666;9.160;2023-02-26T09:49:53;2.90;;;1.43;;
12770;SDS011;6449;47.666;9.160;2023-02-26T09:54:58;3.60;;;1.80;;
12770;SDS011;6449;47.666;9.160;2023-02-26T10:00:22;5.43;;;1.63;;
12770;SDS011;6449;47.666;9.160;2023-02-26T10:05:29;2.33;;;1.90;;
12770;SDS011;6449;47.666;9.160;2023-02-26T10:10:42;1.77;;;1.67;;
12770;SDS011;6449;47.666;9.160;2023-02-26T10:17:19;2.83;;;2.00;;
12770;SDS011;6449;47.666;9.160;2023-02-26T10:22:40;3.20;;;1.80;;
12770;SDS011;6449;47.666;9.160;2023-02-26T10:28:16;2.43;;;1.83;;
12770;SDS011;6449;47.666;9.160;2023-02-26T10:33:45;3.80;;;1.80;;
12770;SDS011;6449;47.666;9.160;2023-02-26T10:38:49;2.97;;;2.00;;
12770;SDS011;6449;47.666;9.160;2023-02-26T10:43:56;2.13;;;1.50;;
12770;SDS011;6449;47.666;9.160;2023-02-26T10:49:08;2.43;;;1.63;;
12770;SDS011;6449;47.666;9.160;2023-02-26T10:54:30;3.80;;;1.70;;
12770;SDS011;6449;47.666;9.160;2023-02-26T10:59:29;2.47;;;1.70;;
12770;SDS011;6449;47.666;9.160;2023-02-26T11:04:26;1.60;;;1.40;;
12770;SDS011;6449;47.666;9.160;2023-02-26T11:09:21;2.37;;;1.90;;
12770;SDS011;6449;47.666;9.160;2023-02-26T11:14:18;3.30;;;2.00;;
12770;SDS011;6449;47.666;9.160;2023-02-26T11:19:17;1.67;;;1.53;;
12770;SDS011;6449;47.666;9.160;2023-02-26T11:24:20;1.87;;;1.77;;
12770;SDS011;6449;47.666;9.160;2023-02-26T11:29:25;1.90;;;1.70;;
12770;SDS011;6449;47.666;9.160;2023-02-26T11:34:25;2.13;;;1.90;;
12770;SDS011;6449;47.666;9.160;2023-02-26T11:39:22;2.00;;;1.90;;
12770;SDS011;6449;47.666;9.160;2023-02-26T11:44:20;1.67;;;1.53;;
12770;SDS011;6449;47.666;9.160;2023-02-26T11:49:27;2.13;;;1.80;;
12770;SDS011;6449;47.666;9.160;2023-02-26T12:05:41;1.50;;;1.40;;
12770;SDS011;6449;47.666;9.160;2023-02-26T12:10:47;2.37;;;1.90;;
12770;SDS011;6449;47.666;9.160;2023-02-26T12:16:05;1.53;;;1.43;;
12770;SDS011;6449;47.666;9.160;2023-02-26T12:21:35;1.60;;;1.50;;
12770;SDS011;6449;47.666;9.160;2023-02-26T12:27:04;1.93;;;1.60;;
12770;SDS011;6449;47.666;9.160;2023-02-26T12:32:21;2.23;;;1.67;;
12770;SDS011;6449;47.666;9.160;2023-02-26T12:37:36;2.60;;;1.90;;
12770;SDS011;6449;47.666;9.160;2023-02-26T12:42:48;1.90;;;1.57;;
12770;SDS011;6449;47.666;9.160;2023-02-26T12:47:59;2.73;;;1.80;;
12770;SDS011;6449;47.666;9.160;2023-02-26T12:59:07;3.00;;;2.00;;
12770;SDS011;6449;47.666;9.160;2023-02-26T13:10:55;3.53;;;2.03;;
12770;SDS011;6449;47.666;9.160;2023-02-26T13:16:31;5.23;;;2.60;;
12770;SDS011;6449;47.666;9.160;2023-02-26T13:21:38;2.80;;;2.60;;
12770;SDS011;6449;47.666;9.160;2023-02-26T13:26:39;3.40;;;2.80;;
12770;SDS011;6449;47.666;9.160;2023-02-26T13:31:38;4.63;;;3.10;;
12770;SDS011;6449;47.666;9.160;2023-02-26T13:36:39;3.17;;;2.87;;
12770;SDS011;6449;47.666;9.160;2023-02-26T13:41:39;2.90;;;2.37;;
12770;SDS011;6449;47.666;9.160;2023-02-26T13:46:51;3.17;;;2.30;;
12770;SDS011;6449;47.666;9.160;2023-02-26T13:52:22;2.63;;;2.40;;
12770;SDS011;6449;47.666;9.160;2023-02-26T13:57:32;2.30;;;2.10;;
12770;SDS011;6449;47.666;9.160;2023-02-26T14:02:42;2.40;;;2.20;;
12770;SDS011;6449;47.666;9.160;2023-02-26T14:07:44;2.60;;;2.10;;
12770;SDS011;6449;47.666;9.160;2023-02-26T14:12:41;2.17;;;2.00;;
12770;SDS011;6449;47.666;9.160;2023-02-26T14:17:38;4.13;;;2.20;;
12770;SDS011;6449;47.666;9.160;2023-02-26T14:22:40;2.90;;;2.30;;
12770;SDS011;6449;47.666;9.160;2023-02-26T14:27:35;2.77;;;2.37;;
12770;SDS011;6449;47.666;9.160;2023-02-26T14:32:31;2.53;;;2.33;;
12770;SDS011;6449;47.666;9.160;2023-02-26T14:37:29;2.17;;;2.00;;
12770;SDS011;6449;47.666;9.160;2023-02-26T14:42:29;2.50;;;2.30;;
12770;SDS011;6449;47.666;9.160;2023-02-26T14:47:32;2.20;;;2.10;;
12770;SDS011;6449;47.666;9.160;2023-02-26T14:52:33;2.47;;;2.27;;
12770;SDS011;6449;47.666;9.160;2023-02-26T14:57:48;2.60;;;2.40;;
12770;SDS011;6449;47.666;9.160;2023-02-26T15:03:17;2.27;;;2.10;;
12770;SDS011;6449;47.666;9.160;2023-02-26T15:08:50;5.13;;;2.50;;
12770;SDS011;6449;47.666;9.160;2023-02-26T15:19:57;2.73;;;2.53;;
12770;SDS011;6449;47.666;9.160;2023-02-26T15:25:03;2.77;;;2.47;;
12770;SDS011;6449;47.666;9.160;2023-02-26T15:30:11;2.53;;;2.33;;
12770;SDS011;6449;47.666;9.160;2023-02-26T15:35:13;2.20;;;2.10;;
12770;SDS011;6449;47.666;9.160;2023-02-26T15:40:12;2.40;;;2.20;;
12770;SDS011;6449;47.666;9.160;2023-02-26T15:45:10;2.50;;;2.30;;
12770;SDS011;6449;47.666;9.160;2023-02-26T15:50:13;3.67;;;2.50;;
12770;SDS011;6449;47.666;9.160;2023-02-26T15:55:14;2.90;;;2.53;;
12770;SDS011;6449;47.666;9.160;2023-02-26T16:00:12;2.67;;;2.47;;
12770;SDS011;6449;47.666;9.160;2023-02-26T16:05:15;2.47;;;2.27;;
12770;SDS011;6449;47.666;9.160;2023-02-26T16:10:16;3.70;;;1.67;;
12770;SDS011;6449;47.666;9.160;2023-02-26T16:15:21;1.70;;;1.60;;
12770;SDS011;6449;47.666;9.160;2023-02-26T16:20:22;2.50;;;1.70;;
12770;SDS011;6449;47.666;9.160;2023-02-26T16:25:23;2.10;;;1.90;;
12770;SDS011;6449;47.666;9.160;2023-02-26T16:30:22;1.77;;;1.67;;
12770;SDS011;6449;47.666;9.160;2023-02-26T16:35:22;2.63;;;2.30;;
12770;SDS011;6449;47.666;9.160;2023-02-26T16:40:26;2.20;;;2.00;;
12770;SDS011;6449;47.666;9.160;2023-02-26T16:45:40;2.30;;;2.10;;
12770;SDS011;6449;47.666;9.160;2023-02-26T16:50:43;2.97;;;2.20;;
12770;SDS011;6449;47.666;9.160;2023-02-26T16:55:48;2.53;;;2.20;;
12770;SDS011;6449;47.666;9.160;2023-02-26T17:00:49;3.60;;;2.50;;
12770;SDS011;6449;47.666;9.160;2023-02-26T17:05:52;5.00;;;2.33;;
12770;SDS011;6449;47.666;9.160;2023-02-26T17:10:54;2.43;;;2.20;;
12770;SDS011;6449;47.666;9.160;2023-02-26T17:16:00;2.43;;;2.23;;
12770;SDS011;6449;47.666;9.160;2023-02-26T17:20:58;2.30;;;1.97;;
12770;SDS011;6449;47.666;9.160;2023-02-26T17:25:56;2.60;;;2.40;;
12770;SDS011;6449;47.666;9.160;2023-02-26T17:30:52;3.10;;;2.30;;
12770;SDS011;6449;47.666;9.160;2023-02-26T17:35:47;3.57;;;2.27;;
12770;SDS011;6449;47.666;9.160;2023-02-26T17:40:43;2.63;;;2.27;;
12770;SDS011;6449;47.666;9.160;2023-02-26T17:45:40;3.23;;;2.50;;
12770;SDS011;6449;47.666;9.160;2023-02-26T17:50:39;3.00;;;2.23;;
12770;SDS011;6449;47.666;9.160;2023-02-26T17:55:37;2.33;;;1.97;;
12770;SDS011;6449;47.666;9.160;2023-02-26T18:00:32;1.70;;;1.60;;
12770;SDS011;6449;47.666;9.160;2023-02-26T18:05:32;2.97;;;1.70;;
12770;SDS011;6449;47.666;9.160;2023-02-26T18:10:29;1.87;;;1.67;;
12770;SDS011;6449;47.666;9.160;2023-02-26T18:15:25;2.03;;;1.73;;
12770;SDS011;6449;47.666;9.160;2023-02-26T18:20:45;3.07;;;1.90;;
12770;SDS011;6449;47.666;9.160;2023-02-26T18:25:53;9.97;;;6.37;;
12770;SDS011;6449;47.666;9.160;2023-02-26T18:30:48;12.77;;;8.13;;
12770;SDS011;6449;47.666;9.160;2023-02-26T18:35:47;12.90;;;7.23;;
12770;SDS011;6449;47.666;9.160;2023-02-26T18:46:03;11.50;;;6.40;;
12770;SDS011;6449;47.666;9.160;2023-02-26T18:51:04;11.80;;;6.73;;
12770;SDS011;6449;47.666;9.160;2023-02-26T18:55:58;9.67;;;6.30;;
12770;SDS011;6449;47.666;9.160;2023-02-26T19:00:52;7.40;;;4.70;;
12770;SDS011;6449;47.666;9.160;2023-02-26T19:05:45;7.60;;;5.07;;
12770;SDS011;6449;47.666;9.160;2023-02-26T19:10:50;9.23;;;5.27;;
12770;SDS011;6449;47.666;9.160;2023-02-26T19:15:46;9.47;;;5.70;;
12770;SDS011;6449;47.666;9.160;2023-02-26T19:20:45;8.33;;;5.40;;
12770;SDS011;6449;47.666;9.160;2023-02-26T19:25:42;9.93;;;6.03;;
12770;SDS011;6449;47.666;9.160;2023-02-26T19:36:17;5.07;;;3.53;;
12770;SDS011;6449;47.666;9.160;2023-02-26T19:41:56;6.23;;;3.87;;
12770;SDS011;6449;47.666;9.160;2023-02-26T19:47:00;5.83;;;4.00;;
12770;SDS011;6449;47.666;9.160;2023-02-26T19:51:56;5.27;;;3.83;;
12770;SDS011;6449;47.666;9.160;2023-02-26T19:57:01;4.63;;;3.63;;
12770;SDS011;6449;47.666;9.160;2023-02-26T20:02:07;4.97;;;3.60;;
12770;SDS011;6449;47.666;9.160;2023-02-26T20:07:27;5.57;;;2.97;;
12770;SDS011;6449;47.666;9.160;2023-02-26T20:12:28;5.37;;;2.90;;
12770;SDS011;6449;47.666;9.160;2023-02-26T20:17:28;4.57;;;2.47;;
12770;SDS011;6449;47.666;9.160;2023-02-26T20:29:12;4.43;;;2.80;;
12770;SDS011;6449;47.666;9.160;2023-02-26T20:34:42;3.13;;;2.63;;
12770;SDS011;6449;47.666;9.160;2023-02-26T20:39:59;2.97;;;2.67;;
12770;SDS011;6449;47.666;9.160;2023-02-26T20:44:55;3.23;;;2.93;;
12770;SDS011;6449;47.666;9.160;2023-02-26T20:49:51;3.43;;;2.87;;
12770;SDS011;6449;47.666;9.160;2023-02-26T20:54:45;3.60;;;2.50;;
12770;SDS011;6449;47.666;9.160;2023-02-26T20:59:38;3.27;;;2.87;;
12770;SDS011;6449;47.666;9.160;2023-02-26T21:04:37;3.03;;;2.83;;
12770;SDS011;6449;47.666;9.160;2023-02-26T21:09:32;2.70;;;2.50;;
12770;SDS011;6449;47.666;9.160;2023-02-26T21:14:25;3.80;;;2.70;;
12770;SDS011;6449;47.666;9.160;2023-02-26T21:19:19;5.10;;;2.63;;
12770;SDS011;6449;47.666;9.160;2023-02-26T21:24:16;4.40;;;2.87;;
12770;SDS011;6449;47.666;9.160;2023-02-26T21:29:11;2.73;;;2.47;;
12770;SDS011;6449;47.666;9.160;2023-02-26T21:34:05;3.47;;;2.90;;
12770;SDS011;6449;47.666;9.160;2023-02-26T21:39:22;3.23;;;2.80;;
12770;SDS011;6449;47.666;9.160;2023-02-26T21:44:17;3.33;;;2.53;;
12770;SDS011;6449;47.666;9.160;2023-02-26T21:49:10;2.90;;;2.70;;
12770;SDS011;6449;47.666;9.160;2023-02-26T21:54:09;3.30;;;3.00;;
12770;SDS011;6449;47.666;9.160;2023-02-26T21:59:03;2.63;;;2.43;;
12770;SDS011;6449;47.666;9.160;2023-02-26T22:03:59;3.80;;;3.00;;
12770;SDS011;6449;47.666;9.160;2023-02-26T22:09:02;2.83;;;2.47;;
12770;SDS011;6449;47.666;9.160;2023-02-26T22:14:07;3.80;;;2.80;;
12770;SDS011;6449;47.666;9.160;2023-02-26T22:19:06;3.03;;;2.70;;
12770;SDS011;6449;47.666;9.160;2023-02-26T22:24:07;3.13;;;2.83;;
12770;SDS011;6449;47.666;9.160;2023-02-26T22:29:04;3.17;;;2.53;;
12770;SDS011;6449;47.666;9.160;2023-02-26T22:33:58;3.17;;;2.97;;
12770;SDS011;6449;47.666;9.160;2023-02-26T22:38:55;3.17;;;2.87;;
12770;SDS011;6449;47.666;9.160;2023-02-26T22:43:48;3.20;;;2.80;;
12770;SDS011;6449;47.666;9.160;2023-02-26T22:48:47;3.13;;;2.93;;
12770;SDS011;6449;47.666;9.160;2023-02-26T22:53:55;3.20;;;2.90;;
12770;SDS011;6449;47.666;9.160;2023-02-26T22:58:57;3.43;;;2.97;;
12770;SDS011;6449;47.666;9.160;2023-02-26T23:03:53;2.70;;;2.43;;
12770;SDS011;6449;47.666;9.160;2023-02-26T23:08:49;3.10;;;2.80;;
12770;SDS011;6449;47.666;9.160;2023-02-26T23:13:45;3.40;;;2.80;;
12770;SDS011;6449;47.666;9.160;2023-02-26T23:18:47;3.37;;;2.90;;
12770;SDS011;6449;47.666;9.160;2023-02-26T23:23:43;3.80;;;3.07;;
12770;SDS011;6449;47.666;9.160;2023-02-26T23:28:39;4.23;;;3.10;;
12770;SDS011;6449;47.666;9.160;2023-02-26T23:33:36;4.53;;;3.30;;
12770;SDS011;6449;47.666;9.160;2023-02-26T23:38:29;3.50;;;3.20;;
12770;SDS011;6449;47.666;9.160;2023-02-26T23:43:38;2.93;;;2.70;;
12770;SDS011;6449;47.666;9.160;2023-02-26T23:48:32;3.73;;;3.40;;
12770;SDS011;6449;47.666;9.160;2023-02-26T23:53:28;3.37;;;3.07;;
12770;SDS011;6449;47.666;9.160;2023-02-26T23:58:25;7.23;;;3.30;;
